Flight Track Log - Related Links

Times and Time Zones

All times are in EST time to prevent confusion due to time zone crossing. See the DAL8920 flight status page for this flight to view local times or setup timezone preferences in your user account.

Time Position Orientation Groundspeed Altitude Reporting Facility
EST Latitude Longitude Course Direction KTS MPH feet Rate Location/Type
Sat 08:32:36 PM 35.0414 -106.5800 21° North 170 196 6,200  Level Albuquerque Center
Sat 08:33:30 PM 35.0747 -106.5640 329° Northwest 183 211 7,300 1,071 Climbing Albuquerque Center
Sat 08:34:00 PM 35.1061 -106.5870 323° Northwest 233 268 7,700 1,667 Climbing Albuquerque Center
Sat 08:35:00 PM 35.1544 -106.6320 325° Northwest 275 316 9,800 2,200 Climbing Albuquerque Center
Sat 08:36:00 PM 35.2217 -106.6900 326° Northwest 281 323 12,100 2,450 Climbing Albuquerque Center
Sat 08:37:00 PM 35.2928 -106.7480 338° Northwest 300 345 14,700 2,650 Climbing Albuquerque Center
Sat 08:38:00 PM 35.3786 -106.7910 335° Northwest 314 361 17,400 2,600 Climbing Albuquerque Center
Sat 08:39:00 PM 35.4686 -106.8430 338° Northwest 319 367 19,900 2,450 Climbing Albuquerque Center
Sat 08:40:00 PM 35.5439 -106.8810 336° Northwest 319 367 22,300 2,000 Climbing Albuquerque Center
Sat 08:41:00 PM 35.6275 -106.9270 338° Northwest 319 367 23,900 1,750 Climbing Albuquerque Center
Sat 08:42:00 PM 35.7258 -106.9750 337° Northwest 328 377 25,800 1,650 Climbing Albuquerque Center
Sat 08:43:00 PM 35.8136 -107.0210 337° Northwest 341 392 27,200 1,350 Climbing Albuquerque Center
Sat 08:44:00 PM 35.8950 -107.0640 338° Northwest 347 399 28,500 1,400 Climbing Albuquerque Center
Sat 08:45:00 PM 35.9994 -107.1170 338° Northwest 355 409 30,000 1,200 Climbing Albuquerque Center
Sat 08:46:00 PM 36.0933 -107.1630 337° Northwest 355 409 30,900 960 Climbing Albuquerque Center
Sat 08:47:55 PM 36.2789 -107.2600 337° Northwest 377 434 32,800 891 Climbing Denver Center
Sat 08:48:55 PM 36.3764 -107.3120 338° Northwest 377 434 33,500 900 Climbing Denver Center
Sat 08:49:55 PM 36.4656 -107.3570 337° Northwest 377 434 34,600 1,200 Climbing Denver Center
Sat 08:50:55 PM 36.5714 -107.4130 336° Northwest 372 428 35,900 1,100 Climbing Denver Center
Sat 08:51:55 PM 36.6647 -107.4660 337° Northwest 377 434 36,800 550 Climbing Denver Center
Sat 08:52:55 PM 36.7600 -107.5160 337° Northwest 371 427 37,000 100 Climbing Denver Center
Sat 08:53:55 PM 36.8450 -107.5620 337° Northwest 365 420 37,000  Level Denver Center
Sat 08:54:55 PM 36.9467 -107.6150 336° Northwest 365 420 37,000  Level Denver Center
Sat 08:55:55 PM 37.0419 -107.6690 338° Northwest 365 420 37,000  Level Denver Center
Sat 08:56:55 PM 37.1247 -107.7120 337° Northwest 370 426 37,000  Level Denver Center
Sat 08:57:55 PM 37.2181 -107.7630 337° Northwest 370 426 37,000  Level Denver Center
Sat 08:58:55 PM 37.3194 -107.8170 336° Northwest 365 420 37,000  Level Denver Center
Sat 08:59:55 PM 37.4169 -107.8710 335° Northwest 354 407 37,000  Level Denver Center
Sat 09:00:55 PM 37.4997 -107.9190 338° Northwest 370 426 37,000  Level Denver Center
Sat 09:01:55 PM 37.5906 -107.9660 337° Northwest 358 412 37,000  Level Denver Center
Sat 09:02:55 PM 37.6942 -108.0210 336° Northwest 358 412 37,000 400 Level Denver Center
Sat 09:03:55 PM 37.7831 -108.0720 337° Northwest 350 403 37,800 500 Climbing Denver Center
Sat 09:04:55 PM 37.8639 -108.1160 337° Northwest 352 405 38,000 100 Climbing Denver Center
Sat 09:05:55 PM 37.9672 -108.1710 335° Northwest 364 419 38,000  Level Denver Center
Sat 09:06:55 PM 38.0581 -108.2240 334° Northwest 364 419 38,000  Level Denver Center
Sat 09:07:55 PM 38.1469 -108.2780 337° Northwest 358 412 38,000  Level Denver Center
Sat 09:08:55 PM 38.2317 -108.3230 336° Northwest 358 412 38,000  Level Denver Center
Sat 09:09:55 PM 38.3328 -108.3810 336° Northwest 358 412 38,000  Level Denver Center
Sat 09:10:55 PM 38.4278 -108.4340 336° Northwest 358 412 38,000  Level Denver Center
Sat 09:11:55 PM 38.5208 -108.4870 337° Northwest 358 412 38,000  Level Denver Center
Sat 09:12:55 PM 38.6033 -108.5320 335° Northwest 358 412 38,000  Level Denver Center
Sat 09:13:55 PM 38.7064 -108.5940 336° Northwest 358 412 38,000  Level Denver Center
Sat 09:14:55 PM 38.7992 -108.6470 337° Northwest 358 412 38,000  Level Denver Center
Sat 09:15:55 PM 38.8922 -108.6980 335° Northwest 364 419 38,000  Level Denver Center
Sat 09:16:55 PM 38.9767 -108.7490 321° Northwest 364 419 38,000  Level Denver Center
Sat 09:17:55 PM 39.0542 -108.8310 309° West 347 399 38,000  Level Denver Center
Sat 09:18:55 PM 39.1147 -108.9270 297° West 331 381 38,000 -100 Level Denver Center
Sat 09:19:55 PM 39.1561 -109.0300 297° West 331 381 37,800 -600 Descending Denver Center
Sat 09:20:55 PM 39.1936 -109.1260 298° West 331 381 36,800 -1,050 Descending Denver Center
Sat 09:21:55 PM 39.2431 -109.2450 296° West 336 387 35,700 -1,050 Descending Denver Center
Sat 09:22:55 PM 39.2861 -109.3570 297° West 341 392 34,700 -950 Descending Denver Center
Sat 09:23:55 PM 39.3311 -109.4690 296° West 346 398 33,800 -950 Descending Denver Center
Sat 09:24:55 PM 39.3722 -109.5760 298° West 356 410 32,800 -534 Descending Denver Center
Sat 09:27:06 PM 39.4764 -109.8340 297° West 358 412 32,100 -250 Descending Salt Lake Center
Sat 09:28:07 PM 39.5189 -109.9440 297° West 357 411 32,000 -49 Descending Salt Lake Center
Sat 09:29:08 PM 39.5694 -110.0740 297° West 358 412 32,000  Level Salt Lake Center
Sat 09:30:10 PM 39.6125 -110.1840 297° West 359 413 32,000 48 Level Salt Lake Center
Sat 09:31:12 PM 39.6561 -110.2950 297° West 360 414 32,100  Climbing Salt Lake Center
Sat 09:32:13 PM 39.7072 -110.4260 296° West 362 417 32,000 -341 Descending Salt Lake Center
Sat 09:33:15 PM 39.7475 -110.5340 297° West 352 405 31,400 -878 Descending Salt Lake Center
Sat 09:34:16 PM 39.7939 -110.6550 297° West 340 391 30,200 -1,024 Descending Salt Lake Center
Sat 09:35:18 PM 39.8333 -110.7570 297° West 333 383 29,300 -927 Descending Salt Lake Center
Sat 09:36:19 PM 39.8728 -110.8590 296° West 330 380 28,300 -1,024 Descending Salt Lake Center
Sat 09:37:21 PM 39.9172 -110.9760 297° West 325 374 27,200 -1,024 Descending Salt Lake Center
Sat 09:38:22 PM 39.9553 -111.0740 295° West 320 368 26,200 -976 Descending Salt Lake Center
Sat 09:39:24 PM 39.9914 -111.1730 296° West 318 366 25,200 -1,463 Descending Salt Lake Center
Sat 09:40:25 PM 40.0358 -111.2910 296° West 321 369 23,200 -1,610 Descending Salt Lake Center
Sat 09:41:27 PM 40.0758 -111.3960 296° West 333 383 21,900 -1,707 Descending Salt Lake Center
Sat 09:42:28 PM 40.1142 -111.5000 293° West 316 364 19,700 -1,680 Descending Salt Lake Center
Sat 09:43:07 PM 40.1417 -111.5830 295° West 311 358 19,100 -788 Descending Salt Lake Center
Sat 09:44:07 PM 40.1769 -111.6830 297° West 305 351 18,400 -645 Descending Salt Lake Center
Sat 09:45:08 PM 40.2131 -111.7780 302° West 293 337 17,800 -776 Descending Salt Lake Center
Sat 09:45:32 PM 40.2292 -111.8120 294° West 291 335 17,300 -700 Descending Salt Lake Center
Sat 09:46:08 PM 40.2486 -111.8700 298° West 290 334 17,100 -194 Descending Salt Lake Center
Sat 09:46:34 PM 40.2642 -111.9080 304° West 288 331 17,100 -197 Level Salt Lake Center
Sat 09:47:09 PM 40.2897 -111.9570 334° Northwest 285 328 16,900 -689 Descending Salt Lake Center
Sat 09:47:35 PM 40.3247 -111.9790 328° Northwest 308 354 16,400 -1,180 Descending Salt Lake Center
Sat 09:48:10 PM 40.3731 -112.0190 336° Northwest 315 362 15,700 -968 Descending Salt Lake Center
Sat 09:48:37 PM 40.4039 -112.0370 344° North 318 366 15,400 -1,200 Descending Salt Lake Center
Sat 09:49:10 PM 40.4556 -112.0560 358° North 324 373 14,500 -1,672 Descending Salt Lake Center
Sat 09:49:38 PM 40.4925 -112.0580 352° North 329 379 13,700 -1,475 Descending Salt Lake Center
Sat 09:50:11 PM 40.5486 -112.0690 358° North 332 382 13,000 -1,355 Descending Salt Lake Center
Sat 09:50:40 PM 40.5850 -112.0710 352° North 330 380 12,300 -1,869 Descending Salt Lake Center
Sat 09:51:12 PM 40.6347 -112.0800 358° North 319 367 11,100 -1,279 Descending Salt Lake Center
Sat 09:51:41 PM 40.6728 -112.0820 352° North 317 365 11,000 -111 Descending Salt Lake Center
Sat 09:52:06 PM 40.7097 -112.0890 360° North 277 319 11,000 98 Level Salt Lake Center
Sat 09:52:42 PM 40.7433 -112.0890 354° North 243 280 11,100 98 Climbing Salt Lake Center
Sat 09:53:07 PM 40.7728 -112.0930 353° North 226 260 11,100 -97 Level Salt Lake Center
Sat 09:53:44 PM 40.8042 -112.0980 357° North 219 252 11,000 -700 Descending Salt Lake Center
Sat 09:54:07 PM 40.8344 -112.1000 352° North 219 252 10,400 -1,475 Descending Salt Lake Center
Sat 09:54:45 PM 40.8672 -112.1060 357° North 223 257 9,500 -1,672 Descending Salt Lake Center
Sat 09:55:08 PM 40.8964 -112.1080 20° North 225 259 8,700 -1,742 Descending Salt Lake Center
Sat 09:55:47 PM 40.9289 -112.0920 70° East 237 273 7,700 -1,778 Descending Salt Lake Center
Sat 09:56:02 PM 40.9369 -112.0630 101° East 229 264 7,100 -1,082 Descending Salt Lake Center
Sat 09:56:48 PM 40.9300 -112.0150 174° South 221 254 6,600 -787 Descending Salt Lake Center
Sat 09:57:03 PM 40.9100 -112.0120 174° South 194 223 6,300 -774 Descending Salt Lake Center
Sat 09:57:50 PM 40.8825 -112.0080 175° South 160 184 5,800 -778 Descending Salt Lake Center
Sat 09:58:51 PM 40.8369 -112.0030 174° South 141 162 4,900 -780 Descending Salt Lake Center
Sat 09:59:53 PM 40.7958 -111.9970 174° South 146 168 4,200 -677 Descending Salt Lake Center

Login

Don't have an account? Register now (free) for customized features, flight alerts, and more!